createdAt,value
2018-02-24T00:00:16.398Z,21.50
2018-02-24T00:02:43.908Z,23.38
2018-02-24T00:05:11.387Z,25.75
2018-02-24T00:07:38.869Z,31.50
2018-02-24T00:10:06.344Z,24.07
2018-02-24T00:12:33.961Z,25.67
2018-02-24T00:15:01.470Z,28.08
2018-02-24T00:17:28.958Z,30.25
2018-02-24T00:19:56.457Z,31.50
2018-02-24T00:22:23.914Z,30.03
2018-02-24T00:24:51.457Z,39.47
2018-02-24T00:27:19.144Z,39.72
2018-02-24T00:29:46.665Z,31.42
2018-02-24T00:32:14.146Z,28.80
2018-02-24T00:34:41.720Z,44.17
2018-02-24T00:37:09.193Z,32.42
2018-02-24T00:39:36.684Z,33.17
2018-02-24T00:42:04.178Z,52.95
2018-02-24T00:44:31.648Z,32.42
2018-02-24T00:46:59.125Z,62.05
2018-02-24T00:49:26.613Z,97.82
2018-02-24T00:51:54.079Z,66.80
2018-02-24T00:54:21.550Z,65.40
2018-02-24T00:56:49.135Z,36.72
2018-02-24T00:59:16.605Z,48.33
2018-02-24T01:01:44.078Z,27.73
2018-02-24T01:04:11.629Z,35.33
2018-02-24T01:06:39.099Z,57.35
2018-02-24T01:09:06.550Z,53.73
2018-02-24T01:11:34.046Z,49.00
2018-02-24T01:14:01.557Z,47.15
2018-02-24T01:16:29.028Z,40.83
2018-02-24T01:18:56.507Z,44.35
2018-02-24T01:21:24.018Z,32.92
2018-02-24T01:23:51.486Z,34.55
2018-02-24T01:26:18.959Z,31.10
2018-02-24T01:28:46.448Z,32.30
2018-02-24T01:31:13.913Z,26.77
2018-02-24T01:33:41.471Z,24.60
2018-02-24T01:36:08.945Z,29.07
2018-02-24T01:38:36.414Z,35.25
2018-02-24T01:41:03.890Z,26.40
2018-02-24T01:43:31.381Z,30.08
2018-02-24T01:45:58.852Z,34.08
2018-02-24T01:48:26.415Z,31.83
2018-02-24T01:50:53.927Z,31.55
2018-02-24T01:53:21.394Z,26.17
2018-02-24T01:55:48.898Z,28.17
2018-02-24T01:58:16.461Z,26.63
2018-02-24T02:00:43.955Z,27.87
2018-02-24T02:03:11.416Z,31.20
2018-02-24T02:05:38.902Z,25.90
2018-02-24T02:08:06.377Z,35.23
2018-02-24T02:10:33.833Z,28.87
2018-02-24T02:13:01.407Z,28.43
2018-02-24T02:15:28.865Z,27.23
2018-02-24T02:17:56.335Z,32.17
2018-02-24T02:20:23.822Z,27.50
2018-02-24T02:22:51.326Z,27.33
2018-02-24T02:25:18.895Z,30.00
2018-02-24T02:27:46.458Z,28.87
2018-02-24T02:30:13.915Z,29.10
2018-02-24T02:32:41.383Z,28.00
2018-02-24T02:35:08.927Z,27.23
2018-02-24T02:37:36.379Z,25.30
2018-02-24T02:40:03.839Z,26.07
2018-02-24T02:42:31.318Z,20.70
2018-02-24T02:44:58.779Z,18.80
2018-02-24T02:47:26.305Z,25.77
2018-02-24T02:49:53.803Z,28.10
2018-02-24T02:52:21.267Z,25.60
2018-02-24T02:54:48.777Z,31.00
2018-02-24T02:57:16.343Z,27.93
2018-02-24T02:59:43.808Z,27.37
2018-02-24T03:02:11.276Z,26.27
2018-02-24T03:04:38.807Z,21.70
2018-02-24T03:07:06.275Z,23.20
2018-02-24T03:09:33.782Z,22.07
2018-02-24T03:12:01.239Z,23.13
2018-02-24T03:14:28.694Z,24.67
2018-02-24T03:16:56.159Z,28.23
2018-02-24T03:19:23.658Z,24.73
2018-02-24T03:21:51.137Z,20.80
2018-02-24T03:24:18.601Z,19.03
2018-02-24T03:26:46.062Z,23.63
2018-02-24T03:29:13.577Z,16.17
2018-02-24T03:31:41.048Z,20.50
2018-02-24T03:34:08.602Z,22.67
2018-02-24T03:36:36.167Z,18.10
2018-02-24T03:39:03.660Z,17.80
2018-02-24T03:41:31.127Z,18.20
2018-02-24T03:43:58.635Z,26.30
2018-02-24T03:46:26.554Z,25.87
2018-02-24T03:48:54.024Z,23.37
2018-02-24T03:51:21.473Z,17.73
2018-02-24T03:53:48.957Z,18.83
2018-02-24T03:56:16.411Z,10.33
2018-02-24T03:58:43.878Z,18.53
2018-02-24T04:01:11.358Z,20.77
2018-02-24T04:03:38.906Z,13.73
2018-02-24T04:06:06.358Z,11.03
2018-02-24T04:08:33.867Z,13.10
2018-02-24T04:11:01.339Z,14.47
2018-02-24T04:13:28.818Z,17.43
2018-02-24T04:15:56.270Z,17.07
2018-02-24T04:18:23.726Z,12.20
2018-02-24T04:20:51.219Z,18.20
2018-02-24T04:23:18.675Z,16.57
2018-02-24T04:25:46.139Z,13.33
2018-02-24T04:28:13.605Z,21.13
2018-02-24T04:30:41.096Z,13.17
2018-02-24T04:33:08.554Z,18.20
2018-02-24T04:35:36.058Z,13.70
2018-02-24T04:38:03.606Z,16.47
2018-02-24T04:40:31.070Z,21.40
2018-02-24T04:42:58.524Z,16.90
2018-02-24T04:45:26.006Z,17.70
2018-02-24T04:47:53.589Z,22.67
2018-02-24T04:50:21.037Z,22.20
2018-02-24T04:52:48.508Z,31.37
2018-02-24T04:55:16.010Z,18.60
2018-02-24T04:57:43.482Z,16.30
2018-02-24T05:00:10.933Z,20.47
2018-02-24T05:02:38.419Z,18.30
2018-02-24T05:05:05.945Z,20.33
2018-02-24T05:07:33.409Z,21.30
2018-02-24T05:10:00.889Z,13.27
2018-02-24T05:12:28.341Z,22.67
2018-02-24T05:14:55.825Z,18.07
2018-02-24T05:17:23.284Z,15.57
2018-02-24T05:19:50.743Z,22.30
2018-02-24T05:22:18.242Z,24.87
2018-02-24T05:24:45.704Z,17.37
2018-02-24T05:27:13.171Z,19.67
2018-02-24T05:29:40.651Z,16.83
2018-02-24T05:32:08.106Z,21.83
2018-02-24T05:34:35.557Z,17.20
2018-02-24T05:37:03.029Z,21.87
2018-02-24T05:39:30.487Z,10.70
2018-02-24T05:41:58.082Z,18.63
2018-02-24T05:44:25.567Z,15.40
2018-02-24T05:46:53.026Z,16.80
2018-02-24T05:49:20.482Z,15.17
2018-02-24T05:51:48.042Z,16.53
2018-02-24T05:54:15.499Z,14.97
2018-02-24T05:56:43.093Z,11.07
2018-02-24T05:59:10.574Z,24.70
2018-02-24T06:01:38.029Z,13.70
2018-02-24T06:04:05.486Z,14.70
2018-02-24T06:06:32.961Z,18.03
2018-02-24T06:09:00.535Z,17.70
2018-02-24T06:11:28.015Z,11.80
2018-02-24T06:13:55.505Z,16.30
2018-02-24T06:16:23.013Z,8.87
2018-02-24T06:18:50.494Z,12.10
2018-02-24T06:21:18.025Z,17.80
2018-02-24T06:23:45.438Z,16.87
2018-02-24T06:26:12.984Z,10.87
2018-02-24T06:28:40.442Z,10.30
2018-02-24T06:31:07.902Z,13.30
2018-02-24T06:33:35.385Z,9.53
2018-02-24T06:36:02.830Z,8.27
2018-02-24T06:38:30.327Z,14.13
2018-02-24T06:40:57.793Z,5.27
2018-02-24T06:43:25.528Z,8.60
2018-02-24T06:45:53.010Z,10.30
2018-02-24T06:48:20.621Z,7.23
2018-02-24T06:50:48.070Z,9.77
2018-02-24T06:53:15.515Z,8.73
2018-02-24T06:55:43.026Z,20.80
2018-02-24T06:58:10.470Z,7.23
2018-02-24T07:00:37.954Z,9.37
2018-02-24T07:03:05.401Z,5.70
2018-02-24T07:05:32.851Z,8.47
2018-02-24T07:08:00.321Z,13.10
2018-02-24T07:10:27.769Z,8.50
2018-02-24T07:12:55.231Z,3.87
2018-02-24T07:15:22.810Z,4.20
2018-02-24T07:17:50.262Z,5.73
2018-02-24T07:20:17.744Z,6.50
2018-02-24T07:22:45.200Z,5.67
2018-02-24T07:25:12.661Z,4.67
2018-02-24T07:27:40.138Z,5.80
2018-02-24T07:30:07.596Z,5.10
2018-02-24T07:32:35.106Z,3.23
2018-02-24T07:35:02.596Z,6.03
2018-02-24T07:37:30.144Z,6.60
2018-02-24T07:39:57.619Z,4.87
2018-02-24T07:42:25.066Z,9.23
2018-02-24T07:44:52.518Z,9.60
2018-02-24T07:47:19.998Z,4.67
2018-02-24T07:49:47.450Z,3.80
2018-02-24T07:52:14.962Z,11.70
2018-02-24T07:54:42.518Z,2.97
2018-02-24T07:57:09.998Z,4.87
2018-02-24T07:59:37.446Z,5.03
2018-02-24T08:02:04.894Z,2.90
2018-02-24T08:04:32.396Z,11.90
2018-02-24T08:06:59.841Z,3.53
2018-02-24T08:09:27.310Z,3.40
2018-02-24T08:11:54.775Z,4.60
2018-02-24T08:14:22.242Z,4.13
2018-02-24T08:16:49.718Z,10.30
2018-02-24T08:19:17.161Z,2.63
2018-02-24T08:21:44.655Z,2.60
2018-02-24T08:24:12.138Z,2.30
2018-02-24T08:26:39.602Z,4.80
2018-02-24T08:29:07.122Z,5.40
2018-02-24T08:31:34.688Z,7.77
2018-02-24T08:34:02.138Z,2.13
2018-02-24T08:36:29.596Z,6.83
2018-02-24T08:38:57.066Z,3.83
2018-02-24T08:41:24.562Z,3.70
2018-02-24T08:43:52.019Z,4.30
2018-02-24T08:46:19.502Z,2.40
2018-02-24T08:48:46.958Z,3.37
2018-02-24T08:51:14.411Z,3.87
2018-02-24T08:53:41.878Z,4.23
2018-02-24T08:56:09.347Z,10.40
2018-02-24T08:58:36.794Z,6.30
2018-02-24T09:01:04.366Z,2.77
2018-02-24T09:03:31.813Z,4.10
2018-02-24T09:05:59.269Z,4.87
2018-02-24T09:08:26.846Z,5.10
2018-02-24T09:10:54.302Z,8.13
2018-02-24T09:13:21.762Z,7.13
2018-02-24T09:15:49.330Z,2.90
2018-02-24T09:18:16.875Z,3.73
2018-02-24T09:20:44.353Z,2.97
2018-02-24T09:23:11.842Z,12.83
2018-02-24T09:25:39.294Z,4.60
2018-02-24T09:28:06.742Z,4.93
2018-02-24T09:30:34.205Z,4.10
2018-02-24T09:33:01.752Z,2.80
2018-02-24T09:35:29.202Z,3.90
2018-02-24T09:37:56.721Z,3.90
2018-02-24T09:40:24.180Z,6.00
2018-02-24T09:42:51.625Z,3.57
2018-02-24T09:45:19.206Z,4.90
2018-02-24T09:47:46.720Z,10.10
2018-02-24T09:50:14.176Z,6.27
2018-02-24T09:52:41.650Z,5.90
2018-02-24T09:55:09.099Z,8.07
2018-02-24T09:57:37.060Z,6.17
2018-02-24T10:00:04.518Z,10.53
2018-02-24T10:02:31.993Z,2.90
2018-02-24T10:04:59.451Z,19.77
2018-02-24T10:07:26.934Z,2.77
2018-02-24T10:09:54.398Z,6.63
2018-02-24T10:12:21.867Z,5.87
2018-02-24T10:14:49.319Z,2.60
2018-02-24T10:17:16.865Z,4.30
2018-02-24T10:19:44.322Z,11.43
2018-02-24T10:22:11.776Z,3.90
2018-02-24T10:24:39.288Z,8.23
2018-02-24T10:27:06.754Z,5.27
2018-02-24T10:29:34.244Z,4.63
2018-02-24T10:32:01.695Z,2.40
2018-02-24T10:34:29.184Z,5.20
2018-02-24T10:36:56.633Z,3.20
2018-02-24T10:39:24.185Z,5.03
2018-02-24T10:41:51.662Z,4.00
2018-02-24T10:44:19.255Z,5.60
2018-02-24T10:46:46.782Z,9.37
2018-02-24T10:49:14.279Z,3.23
2018-02-24T10:51:41.735Z,6.43
2018-02-24T10:54:09.214Z,5.30
2018-02-24T10:56:36.662Z,2.57
2018-02-24T10:59:04.111Z,10.30
2018-02-24T11:01:31.593Z,5.40
2018-02-24T11:03:59.037Z,4.10
2018-02-24T11:06:26.492Z,3.20
2018-02-24T11:08:53.963Z,3.00
2018-02-24T11:11:21.455Z,2.93
2018-02-24T11:13:48.882Z,8.03
2018-02-24T11:16:16.343Z,2.73
2018-02-24T11:18:43.790Z,4.40
2018-02-24T11:21:11.259Z,7.10
2018-02-24T11:23:38.703Z,3.47
2018-02-24T11:26:06.154Z,2.83
2018-02-24T11:28:33.617Z,5.90
2018-02-24T11:31:01.086Z,3.10
2018-02-24T11:33:28.547Z,2.80
2018-02-24T11:35:55.990Z,8.77
2018-02-24T11:38:23.458Z,3.10
2018-02-24T11:40:50.906Z,4.70
2018-02-24T11:43:18.386Z,10.20
2018-02-24T11:45:45.892Z,6.83
2018-02-24T11:48:13.397Z,8.90
2018-02-24T11:50:40.948Z,4.67
2018-02-24T11:53:08.406Z,8.70
2018-02-24T11:55:35.866Z,5.13
2018-02-24T11:58:03.345Z,2.90
2018-02-24T12:00:30.793Z,5.20
2018-02-24T12:02:58.337Z,2.83
2018-02-24T12:05:25.909Z,2.57
2018-02-24T12:07:53.385Z,3.77
2018-02-24T12:10:20.913Z,4.63
2018-02-24T12:12:48.358Z,6.73
2018-02-24T12:15:15.882Z,3.00
2018-02-24T12:17:43.326Z,3.23
2018-02-24T12:20:10.766Z,7.57
2018-02-24T12:22:38.231Z,3.40
2018-02-24T12:25:05.679Z,5.77
2018-02-24T12:27:33.135Z,3.43
2018-02-24T12:30:00.621Z,6.03
2018-02-24T12:32:28.129Z,5.53
2018-02-24T12:34:55.589Z,4.13
2018-02-24T12:37:23.072Z,3.90
2018-02-24T12:39:50.614Z,7.10
2018-02-24T12:42:18.062Z,2.70
2018-02-24T12:44:45.530Z,6.97
2018-02-24T12:47:12.987Z,4.87
2018-02-24T12:49:40.446Z,4.87
2018-02-24T12:52:07.946Z,3.53
2018-02-24T12:54:35.446Z,2.60
2018-02-24T12:57:02.907Z,4.13
2018-02-24T12:59:30.412Z,2.87
2018-02-24T13:01:57.930Z,5.57
2018-02-24T13:04:25.478Z,3.17
2018-02-24T13:06:52.969Z,4.30
2018-02-24T13:09:20.494Z,3.57
2018-02-24T13:11:47.949Z,4.30
2018-02-24T13:14:15.450Z,4.10
2018-02-24T13:16:43.022Z,2.83
2018-02-24T13:19:10.472Z,4.67
2018-02-24T13:21:37.987Z,4.90
2018-02-24T13:24:05.543Z,6.37
2018-02-24T13:26:33.009Z,4.43
2018-02-24T13:29:00.466Z,5.93
2018-02-24T13:31:27.950Z,3.03
2018-02-24T13:33:55.454Z,3.17
2018-02-24T13:36:22.920Z,2.70
2018-02-24T13:38:50.402Z,5.17
2018-02-24T13:41:17.893Z,4.53
2018-02-24T13:43:45.353Z,3.43
2018-02-24T13:46:12.914Z,7.67
2018-02-24T13:48:40.415Z,4.43
2018-02-24T13:51:07.862Z,4.47
2018-02-24T13:53:35.315Z,3.60
2018-02-24T13:56:02.801Z,6.00
2018-02-24T13:58:30.335Z,7.13
2018-02-24T14:00:57.809Z,4.80
2018-02-24T14:03:25.381Z,6.73
2018-02-24T14:05:52.982Z,3.23
2018-02-24T14:08:20.541Z,4.70
2018-02-24T14:10:48.008Z,5.50
2018-02-24T14:13:15.514Z,4.63
2018-02-24T14:15:43.067Z,6.83
2018-02-24T14:18:10.545Z,7.60
2018-02-24T14:20:37.989Z,2.57
2018-02-24T14:23:05.556Z,10.03
2018-02-24T14:25:33.014Z,7.83
2018-02-24T14:28:00.467Z,5.23
2018-02-24T14:30:27.960Z,6.33
2018-02-24T14:32:55.421Z,3.60
2018-02-24T14:35:22.882Z,5.23
2018-02-24T14:37:50.437Z,5.60
2018-02-24T14:40:17.948Z,4.67
2018-02-24T14:42:45.504Z,4.53
2018-02-24T14:45:13.041Z,3.83
2018-02-24T14:47:40.466Z,3.40
2018-02-24T14:50:07.924Z,6.23
2018-02-24T14:52:35.441Z,3.80
2018-02-24T14:55:03.048Z,6.00
2018-02-24T14:57:30.550Z,3.27
2018-02-24T14:59:58.006Z,3.33
2018-02-24T15:02:25.467Z,6.00
2018-02-24T15:04:52.925Z,4.93
2018-02-24T15:07:20.375Z,6.37
2018-02-24T15:09:47.833Z,4.03
2018-02-24T15:12:15.303Z,5.73
2018-02-24T15:14:42.770Z,7.20
2018-02-24T15:17:10.259Z,3.47
2018-02-24T15:19:37.749Z,4.53
2018-02-24T15:22:05.214Z,3.47
2018-02-24T15:24:32.661Z,6.00
2018-02-24T15:27:00.153Z,4.10
2018-02-24T15:29:27.609Z,3.80
2018-02-24T15:31:55.062Z,3.03
2018-02-24T15:34:22.551Z,4.73
2018-02-24T15:36:50.062Z,3.90
2018-02-24T15:39:17.525Z,3.90
2018-02-24T15:41:45.003Z,11.10
2018-02-24T15:44:12.450Z,4.13
2018-02-24T15:46:39.903Z,3.30
2018-02-24T15:49:07.368Z,3.00
2018-02-24T15:51:34.892Z,4.23
2018-02-24T15:54:03.174Z,3.83
2018-02-24T15:56:30.621Z,3.83
2018-02-24T15:58:58.076Z,6.50
2018-02-24T16:01:25.558Z,4.57
2018-02-24T16:03:53.028Z,4.87
2018-02-24T16:06:20.497Z,11.73
2018-02-24T16:08:47.954Z,7.20
2018-02-24T16:11:15.434Z,5.47
2018-02-24T16:13:42.918Z,5.83
2018-02-24T16:16:10.371Z,13.67
2018-02-24T16:18:37.826Z,4.83
2018-02-24T16:21:05.291Z,5.13
2018-02-24T16:23:32.738Z,4.07
2018-02-24T16:26:00.284Z,22.60
2018-02-24T16:28:27.739Z,6.53
2018-02-24T16:30:55.193Z,4.63
2018-02-24T16:33:22.680Z,4.27
2018-02-24T16:35:50.131Z,3.70
2018-02-24T16:38:17.589Z,6.10
2018-02-24T16:40:45.085Z,5.50
2018-02-24T16:43:12.534Z,6.60
2018-02-24T16:45:39.978Z,3.43
2018-02-24T16:48:07.514Z,4.50
2018-02-24T16:50:34.968Z,4.63
2018-02-24T16:53:02.464Z,3.47
2018-02-24T16:55:30.018Z,4.73
2018-02-24T16:57:57.465Z,8.60
2018-02-24T17:00:24.918Z,3.60
2018-02-24T17:02:52.527Z,4.20
2018-02-24T17:05:19.981Z,6.70
2018-02-24T17:07:47.510Z,5.30
2018-02-24T17:10:14.978Z,6.07
2018-02-24T17:12:42.439Z,6.20
2018-02-24T17:15:09.931Z,4.20
2018-02-24T17:17:37.403Z,10.13
2018-02-24T17:20:04.855Z,6.53
2018-02-24T17:22:32.334Z,7.83
2018-02-24T17:24:59.814Z,5.33
2018-02-24T17:27:27.279Z,4.77
2018-02-24T17:29:54.767Z,10.20
2018-02-24T17:32:22.226Z,5.13
2018-02-24T17:34:49.674Z,8.40
2018-02-24T17:37:17.156Z,15.80
2018-02-24T17:39:44.658Z,19.90
2018-02-24T17:42:12.114Z,13.60
2018-02-24T17:44:39.678Z,5.90
2018-02-24T17:47:07.131Z,6.03
2018-02-24T17:49:34.602Z,8.10
2018-02-24T17:52:02.050Z,4.47
2018-02-24T17:54:29.498Z,4.30
2018-02-24T17:56:56.959Z,6.03
2018-02-24T17:59:24.401Z,4.83
2018-02-24T18:01:51.863Z,5.60
2018-02-24T18:04:19.329Z,3.33
2018-02-24T18:06:46.892Z,5.20
2018-02-24T18:09:14.364Z,4.23
2018-02-24T18:11:41.854Z,5.23
2018-02-24T18:14:09.363Z,7.77
2018-02-24T18:16:36.854Z,4.77
2018-02-24T18:19:04.316Z,6.97
2018-02-24T18:21:31.767Z,4.77
2018-02-24T18:23:59.450Z,6.90
2018-02-24T18:26:26.959Z,3.77
2018-02-24T18:28:54.419Z,6.63
2018-02-24T18:31:21.970Z,13.02
2018-02-24T18:33:49.892Z,4.77
2018-02-24T18:36:17.346Z,6.70
2018-02-24T18:38:44.812Z,4.37
2018-02-24T18:41:12.294Z,6.30
2018-02-24T18:43:39.774Z,6.53
2018-02-24T18:46:07.229Z,3.70
2018-02-24T18:48:34.685Z,5.33
2018-02-24T18:51:02.164Z,4.17
2018-02-24T18:53:29.610Z,3.50
2018-02-24T18:55:57.062Z,4.37
2018-02-24T18:58:24.542Z,5.50
2018-02-24T19:00:52.017Z,6.00
2018-02-24T19:03:19.473Z,5.07
2018-02-24T19:05:46.926Z,6.33
2018-02-24T19:08:14.397Z,4.83
2018-02-24T19:10:41.883Z,6.60
2018-02-24T19:13:09.334Z,3.67
2018-02-24T19:15:36.864Z,3.60
2018-02-24T19:18:04.342Z,5.17
2018-02-24T19:20:31.877Z,5.80
2018-02-24T19:22:59.325Z,4.70
2018-02-24T19:25:26.803Z,10.90
2018-02-24T19:27:54.306Z,3.40
2018-02-24T19:30:21.770Z,5.97
2018-02-24T19:32:49.248Z,3.50
2018-02-24T19:35:16.705Z,3.73
2018-02-24T19:37:44.178Z,6.53
2018-02-24T19:40:11.647Z,6.63
2018-02-24T19:42:39.098Z,9.63
2018-02-24T19:45:06.652Z,4.43
2018-02-24T19:47:34.172Z,4.83
2018-02-24T19:50:01.638Z,7.67
2018-02-24T19:52:29.187Z,4.30
2018-02-24T19:54:56.646Z,5.30
2018-02-24T19:57:24.123Z,5.37
2018-02-24T19:59:51.582Z,5.28
2018-02-24T20:02:19.027Z,2.63
2018-02-24T20:04:46.514Z,3.80
2018-02-24T20:07:13.979Z,4.82
2018-02-24T20:09:41.433Z,5.70
2018-02-24T20:12:08.926Z,5.62
2018-02-24T20:14:36.379Z,4.40
2018-02-24T20:17:03.843Z,11.85
2018-02-24T20:19:31.360Z,5.37
2018-02-24T20:21:58.867Z,4.50
2018-02-24T20:24:26.419Z,8.35
2018-02-24T20:26:53.891Z,5.03
2018-02-24T20:29:21.458Z,6.40
2018-02-24T20:31:48.947Z,6.40
2018-02-24T20:34:16.460Z,5.35
2018-02-24T20:36:43.914Z,4.57
2018-02-24T20:39:11.406Z,4.30
2018-02-24T20:41:38.857Z,5.10
2018-02-24T20:44:06.321Z,4.47
2018-02-24T20:46:33.810Z,4.82
2018-02-24T20:49:01.356Z,5.70
2018-02-24T20:51:28.810Z,6.05
2018-02-24T20:53:56.270Z,4.10
2018-02-24T20:56:23.783Z,5.10
2018-02-24T20:58:51.268Z,5.00
2018-02-24T21:01:18.805Z,13.88
2018-02-24T21:03:46.266Z,7.90
2018-02-24T21:09:04.115Z,8.02
2018-02-24T21:11:31.689Z,6.80
2018-02-24T21:13:59.142Z,5.90
2018-02-24T21:16:26.614Z,5.45
2018-02-24T21:18:54.147Z,13.32
2018-02-24T21:21:21.610Z,10.63
2018-02-24T21:23:49.205Z,5.90
2018-02-24T21:26:16.674Z,5.23
2018-02-24T21:28:44.158Z,7.65
2018-02-24T21:31:11.728Z,4.85
2018-02-24T21:33:39.321Z,7.13
2018-02-24T21:36:06.777Z,7.90
2018-02-24T21:38:34.267Z,5.75
2018-02-24T21:41:01.726Z,16.83
2018-02-24T21:43:29.190Z,5.55
2018-02-24T21:45:56.663Z,6.62
2018-02-24T21:48:24.132Z,5.62
2018-02-24T21:50:51.694Z,6.82
2018-02-24T21:53:19.158Z,5.35
2018-02-24T21:55:46.622Z,6.12
2018-02-24T21:58:14.119Z,5.25
2018-02-24T22:00:41.584Z,7.32
2018-02-24T22:03:09.047Z,5.87
2018-02-24T22:05:36.569Z,5.57
2018-02-24T22:08:04.016Z,4.82
2018-02-24T22:10:31.482Z,4.05
2018-02-24T22:12:59.015Z,5.35
2018-02-24T22:15:26.490Z,6.00
2018-02-24T22:17:53.974Z,4.45
2018-02-24T22:20:21.462Z,6.50
2018-02-24T22:22:48.915Z,6.00
2018-02-24T22:25:16.450Z,4.30
2018-02-24T22:27:43.954Z,15.60
2018-02-24T22:30:11.443Z,5.90
2018-02-24T22:32:38.934Z,6.32
2018-02-24T22:35:06.391Z,4.05
2018-02-24T22:37:33.889Z,6.32
2018-02-24T22:40:01.378Z,8.30
2018-02-24T22:42:28.914Z,5.20
2018-02-24T22:44:56.410Z,18.87
2018-02-24T22:47:23.893Z,6.62
2018-02-24T22:49:51.350Z,4.65
2018-02-24T22:52:18.813Z,10.48
2018-02-24T22:54:46.294Z,5.50
2018-02-24T22:57:13.762Z,7.30
2018-02-24T22:59:41.360Z,10.88
2018-02-24T23:02:08.830Z,11.75
2018-02-24T23:04:36.307Z,7.47
2018-02-24T23:07:03.762Z,7.12
2018-02-24T23:09:31.287Z,7.00
2018-02-24T23:11:58.788Z,19.85
2018-02-24T23:14:26.259Z,18.95
2018-02-24T23:16:53.718Z,20.35
2018-02-24T23:19:21.275Z,16.08
2018-02-24T23:21:48.882Z,10.80
2018-02-24T23:24:16.426Z,16.48
2018-02-24T23:26:43.946Z,17.83
2018-02-24T23:29:11.423Z,15.35
2018-02-24T23:31:38.894Z,15.57
2018-02-24T23:34:06.377Z,15.35
2018-02-24T23:36:33.840Z,16.30
2018-02-24T23:39:01.357Z,7.62
2018-02-24T23:41:28.909Z,9.35
2018-02-24T23:43:56.380Z,6.50
2018-02-24T23:46:23.872Z,22.35
2018-02-24T23:48:51.354Z,46.05
2018-02-24T23:51:18.814Z,15.10
2018-02-24T23:53:46.289Z,10.82
2018-02-24T23:56:13.749Z,9.77
2018-02-24T23:58:41.300Z,8.50
